createdAt,value
2019-03-31T00:01:11.279Z,49.70
2019-03-31T00:03:44.209Z,49.54
2019-03-31T00:06:17.092Z,49.47
2019-03-31T00:08:49.993Z,49.39
2019-03-31T00:11:22.798Z,49.16
2019-03-31T00:13:55.581Z,48.89
2019-03-31T00:16:28.396Z,48.95
2019-03-31T00:19:01.454Z,48.84
2019-03-31T00:21:34.228Z,48.73
2019-03-31T00:24:07.034Z,48.46
2019-03-31T00:26:39.838Z,48.55
2019-03-31T00:29:12.750Z,48.85
2019-03-31T00:31:45.568Z,49.12
2019-03-31T00:34:18.548Z,49.68
2019-03-31T00:36:53.341Z,50.20
2019-03-31T00:39:26.184Z,50.51
2019-03-31T00:41:58.974Z,50.90
2019-03-31T00:44:32.076Z,51.32
2019-03-31T00:47:06.366Z,52.40
2019-03-31T00:49:39.222Z,52.39
2019-03-31T00:52:12.070Z,52.37
2019-03-31T00:54:44.930Z,52.25
2019-03-31T00:57:17.696Z,52.14
2019-03-31T00:59:50.494Z,51.70
2019-03-31T01:02:27.259Z,51.56
2019-03-31T01:05:00.341Z,51.42
2019-03-31T01:07:33.356Z,51.65
2019-03-31T01:10:06.872Z,51.96
2019-03-31T01:12:40.145Z,53.84
2019-03-31T01:15:17.323Z,54.06
2019-03-31T01:17:50.937Z,53.95
2019-03-31T01:20:23.773Z,54.40
2019-03-31T01:22:56.676Z,54.66
2019-03-31T01:25:29.524Z,54.36
2019-03-31T01:28:02.719Z,54.23
2019-03-31T01:30:35.761Z,54.88
2019-03-31T01:33:08.642Z,55.62
2019-03-31T01:35:41.576Z,55.30
2019-03-31T01:38:14.457Z,54.86
2019-03-31T01:40:47.287Z,54.66
2019-03-31T01:43:21.191Z,54.80
2019-03-31T01:45:54.162Z,54.63
2019-03-31T01:48:26.960Z,55.09
2019-03-31T01:50:59.883Z,54.93
2019-03-31T01:53:32.760Z,55.42
2019-03-31T01:56:06.242Z,54.85
2019-03-31T01:58:39.007Z,54.56
2019-03-31T02:01:14.203Z,54.31
2019-03-31T02:03:47.094Z,54.47
2019-03-31T02:06:19.944Z,55.04
2019-03-31T02:08:52.705Z,55.59
2019-03-31T02:11:25.806Z,55.95
2019-03-31T02:13:58.589Z,56.14
2019-03-31T02:16:32.134Z,56.33
2019-03-31T02:19:05.166Z,56.36
2019-03-31T02:21:37.972Z,56.50
2019-03-31T02:24:10.744Z,56.20
2019-03-31T02:26:43.556Z,56.28
2019-03-31T02:29:16.456Z,56.35
2019-03-31T02:31:49.351Z,56.35
2019-03-31T02:34:22.276Z,56.19
2019-03-31T02:36:55.098Z,55.71
2019-03-31T02:39:28.018Z,55.85
2019-03-31T02:42:01.585Z,56.53
2019-03-31T02:44:34.499Z,56.49
2019-03-31T02:47:07.379Z,56.46
2019-03-31T02:52:11.742Z,55.93
2019-03-31T02:54:44.876Z,55.84
2019-03-31T02:57:18.040Z,55.80
2019-03-31T02:59:53.633Z,55.84
2019-03-31T03:02:41.443Z,55.83
2019-03-31T03:05:19.006Z,55.97
2019-03-31T03:07:43.905Z,55.93
2019-03-31T03:10:16.684Z,55.96
2019-03-31T03:12:51.954Z,56.30
2019-03-31T03:15:30.514Z,56.55
2019-03-31T03:18:03.463Z,57.73
2019-03-31T03:20:36.238Z,58.77
2019-03-31T03:23:09.003Z,58.37
2019-03-31T03:25:54.825Z,57.89
2019-03-31T03:28:16.704Z,58.37
2019-03-31T03:30:49.577Z,58.17
2019-03-31T03:33:22.682Z,57.96
2019-03-31T03:35:55.624Z,58.08
2019-03-31T03:38:28.408Z,57.95
2019-03-31T03:41:01.650Z,57.93
2019-03-31T03:43:34.419Z,57.83
2019-03-31T03:46:07.202Z,57.74
2019-03-31T03:48:39.979Z,57.94
2019-03-31T03:51:12.837Z,59.75
2019-03-31T03:53:45.749Z,59.90
2019-03-31T03:56:18.515Z,59.46
2019-03-31T03:58:51.712Z,59.15
2019-03-31T04:01:27.466Z,59.28
2019-03-31T04:04:00.362Z,59.31
2019-03-31T04:06:33.251Z,59.25
2019-03-31T04:09:07.766Z,60.57
2019-03-31T04:11:40.874Z,60.05
2019-03-31T04:14:13.747Z,59.93
2019-03-31T04:16:46.492Z,60.00
2019-03-31T04:19:19.318Z,60.39
2019-03-31T04:21:52.095Z,60.15
2019-03-31T04:24:24.871Z,59.94
2019-03-31T04:26:57.779Z,59.82
2019-03-31T04:29:30.647Z,59.85
2019-03-31T04:32:03.491Z,61.46
2019-03-31T04:34:36.353Z,62.07
2019-03-31T04:37:09.266Z,62.01
2019-03-31T04:39:42.294Z,61.57
2019-03-31T04:42:15.112Z,61.12
2019-03-31T04:44:51.181Z,60.67
2019-03-31T04:47:23.944Z,60.37
2019-03-31T04:49:56.746Z,59.79
2019-03-31T04:52:29.590Z,59.13
2019-03-31T04:55:02.580Z,58.28
2019-03-31T04:57:35.337Z,57.27
2019-03-31T05:00:08.428Z,55.88
2019-03-31T05:02:41.218Z,54.01
2019-03-31T05:05:13.998Z,51.89
2019-03-31T05:07:46.837Z,49.94
2019-03-31T05:10:19.657Z,47.98
2019-03-31T05:12:53.576Z,46.33
2019-03-31T05:15:26.450Z,44.93
2019-03-31T05:17:59.260Z,42.49
2019-03-31T05:20:32.224Z,40.00
2019-03-31T05:23:05.035Z,37.77
2019-03-31T05:25:38.016Z,36.14
2019-03-31T05:28:10.827Z,34.64
2019-03-31T05:30:43.604Z,33.55
2019-03-31T05:33:16.513Z,32.14
2019-03-31T05:35:50.982Z,30.50
2019-03-31T05:38:23.760Z,29.18
2019-03-31T05:40:56.552Z,27.52
2019-03-31T05:43:29.406Z,26.09
2019-03-31T05:46:02.535Z,24.30
2019-03-31T05:48:35.350Z,23.46
2019-03-31T05:51:09.283Z,22.24
2019-03-31T05:53:42.084Z,21.32
2019-03-31T05:56:14.909Z,20.36
2019-03-31T05:58:47.702Z,19.90
2019-03-31T06:01:20.534Z,19.00
2019-03-31T06:03:53.392Z,18.12
2019-03-31T06:06:26.204Z,17.35
2019-03-31T06:08:59.032Z,16.89
2019-03-31T06:11:31.970Z,15.88
2019-03-31T06:14:04.796Z,15.57
2019-03-31T06:16:37.722Z,14.46
2019-03-31T06:19:11.105Z,14.43
2019-03-31T06:21:44.018Z,13.58
2019-03-31T06:24:16.966Z,13.33
2019-03-31T06:26:49.864Z,12.56
2019-03-31T06:29:22.624Z,12.10
2019-03-31T06:31:55.565Z,11.79
2019-03-31T06:34:29.548Z,10.88
2019-03-31T06:37:02.387Z,10.39
2019-03-31T06:39:35.286Z,9.95
2019-03-31T06:42:08.113Z,9.43
2019-03-31T06:44:41.402Z,9.04
2019-03-31T06:47:14.373Z,9.17
2019-03-31T06:49:47.298Z,8.97
2019-03-31T06:52:20.158Z,8.64
2019-03-31T06:54:52.982Z,8.04
2019-03-31T06:57:25.970Z,7.93
2019-03-31T07:00:01.701Z,7.45
2019-03-31T07:02:34.571Z,7.34
2019-03-31T07:05:07.891Z,7.18
2019-03-31T07:07:41.333Z,6.90
2019-03-31T07:10:14.973Z,6.52
2019-03-31T07:12:49.763Z,6.38
2019-03-31T07:15:22.532Z,6.31
2019-03-31T07:17:55.425Z,6.22
2019-03-31T07:20:28.451Z,5.89
2019-03-31T07:23:01.334Z,5.69
2019-03-31T07:25:37.056Z,5.65
2019-03-31T07:28:08.876Z,5.39
2019-03-31T07:30:41.734Z,5.06
2019-03-31T07:33:16.199Z,4.93
2019-03-31T07:35:48.995Z,4.52
2019-03-31T07:38:22.090Z,4.39
2019-03-31T07:40:55.415Z,4.25
2019-03-31T07:43:28.302Z,3.95
2019-03-31T07:46:01.202Z,3.65
2019-03-31T07:48:34.130Z,3.30
2019-03-31T07:51:06.934Z,3.14
2019-03-31T07:53:39.863Z,2.98
2019-03-31T07:56:15.975Z,2.63
2019-03-31T07:58:47.342Z,2.56
2019-03-31T08:01:20.158Z,2.25
2019-03-31T08:03:53.085Z,2.31
2019-03-31T08:06:26.052Z,2.08
2019-03-31T08:08:58.894Z,1.97
2019-03-31T08:11:32.180Z,1.75
2019-03-31T08:14:04.992Z,1.80
2019-03-31T08:16:37.864Z,1.56
2019-03-31T08:19:10.888Z,1.42
2019-03-31T08:21:43.801Z,1.26
2019-03-31T08:24:16.747Z,1.24
2019-03-31T08:26:49.641Z,1.07
2019-03-31T08:29:24.252Z,0.80
2019-03-31T08:31:57.178Z,0.81
2019-03-31T08:34:29.984Z,0.70
2019-03-31T08:37:02.798Z,0.70
2019-03-31T08:39:35.664Z,0.54
2019-03-31T08:42:09.684Z,0.37
2019-03-31T08:44:42.658Z,0.39
2019-03-31T08:47:15.515Z,0.38
2019-03-31T08:49:48.348Z,0.38
2019-03-31T08:52:21.486Z,0.37
2019-03-31T08:54:54.688Z,0.45
2019-03-31T08:57:27.501Z,0.33
2019-03-31T09:00:01.394Z,0.18
2019-03-31T09:02:35.617Z,0.07
2019-03-31T09:05:10.253Z,0.04
2019-03-31T09:07:43.185Z,0.04
2019-03-31T09:10:16.280Z,0.04
2019-03-31T09:12:49.143Z,0.00
2019-03-31T09:15:22.359Z,0.02
2019-03-31T09:17:55.131Z,0.06
2019-03-31T09:20:27.912Z,0.00
2019-03-31T09:23:01.028Z,0.00
2019-03-31T09:25:36.059Z,0.00
2019-03-31T09:28:09.077Z,0.00
2019-03-31T09:30:42.140Z,0.00
2019-03-31T09:33:15.023Z,0.00
2019-03-31T09:35:47.885Z,0.00
2019-03-31T09:38:20.722Z,0.00
2019-03-31T09:40:53.700Z,0.00
2019-03-31T09:43:26.439Z,0.00
2019-03-31T09:46:00.828Z,0.00
2019-03-31T09:48:33.675Z,0.00
2019-03-31T09:51:07.617Z,0.00
2019-03-31T09:53:42.333Z,0.00
2019-03-31T09:56:16.963Z,0.00
2019-03-31T09:58:51.602Z,0.00
2019-03-31T10:01:24.428Z,0.00
2019-03-31T10:03:57.210Z,0.00
2019-03-31T10:06:30.865Z,0.00
2019-03-31T10:09:04.538Z,0.00
2019-03-31T10:11:37.496Z,0.00
2019-03-31T10:14:10.324Z,0.00
2019-03-31T10:16:43.137Z,0.00
2019-03-31T10:19:15.968Z,0.00
2019-03-31T10:21:48.898Z,0.00
2019-03-31T10:24:22.087Z,0.00
2019-03-31T10:26:54.954Z,0.00
2019-03-31T10:29:27.860Z,0.00
2019-03-31T10:32:00.741Z,0.00
2019-03-31T10:34:33.541Z,0.00
2019-03-31T10:37:06.336Z,0.00
2019-03-31T10:39:39.256Z,0.00
2019-03-31T10:42:12.046Z,0.00
2019-03-31T10:44:44.938Z,0.00
2019-03-31T10:47:17.830Z,0.00
2019-03-31T10:49:51.022Z,0.00
2019-03-31T10:52:23.985Z,0.00
2019-03-31T10:54:56.948Z,0.00
2019-03-31T10:57:29.735Z,0.00
2019-03-31T11:00:02.780Z,0.00
2019-03-31T11:02:35.760Z,0.00
2019-03-31T11:05:08.882Z,0.00
2019-03-31T11:07:41.922Z,0.00
2019-03-31T11:10:14.841Z,0.00
2019-03-31T11:12:50.809Z,0.00
2019-03-31T11:15:23.886Z,0.30
2019-03-31T11:17:56.665Z,0.26
2019-03-31T11:20:29.584Z,0.14
2019-03-31T11:23:18.280Z,0.33
2019-03-31T11:25:51.577Z,0.41
2019-03-31T11:28:27.245Z,1.10
2019-03-31T11:31:00.044Z,2.62
2019-03-31T11:33:32.891Z,4.00
2019-03-31T11:36:05.718Z,5.05
2019-03-31T11:38:38.673Z,5.14
2019-03-31T11:41:11.458Z,6.39
2019-03-31T11:43:44.327Z,5.79
2019-03-31T11:46:19.857Z,5.19
2019-03-31T11:48:52.725Z,5.38
2019-03-31T11:51:25.583Z,6.60
2019-03-31T11:53:58.359Z,7.81
2019-03-31T11:56:31.157Z,8.93
2019-03-31T11:59:03.920Z,9.96
2019-03-31T12:01:37.882Z,10.86
2019-03-31T12:04:10.761Z,11.59
2019-03-31T12:06:44.665Z,12.00
2019-03-31T12:09:17.736Z,12.68
2019-03-31T12:11:50.606Z,13.11
2019-03-31T12:14:23.399Z,13.30
2019-03-31T12:16:56.378Z,13.51
2019-03-31T12:19:29.160Z,13.69
2019-03-31T12:22:02.126Z,13.96
2019-03-31T12:24:35.028Z,13.92
2019-03-31T12:27:07.963Z,14.27
2019-03-31T12:29:41.366Z,14.86
2019-03-31T12:32:15.352Z,15.44
2019-03-31T12:34:48.462Z,15.93
2019-03-31T12:37:21.363Z,16.41
2019-03-31T12:39:54.121Z,16.48
2019-03-31T12:42:26.958Z,16.53
2019-03-31T12:45:00.742Z,16.86
2019-03-31T12:47:35.452Z,17.43
2019-03-31T12:50:09.043Z,17.68
2019-03-31T12:52:47.454Z,17.90
2019-03-31T12:55:18.020Z,18.02
2019-03-31T12:57:52.053Z,18.04
2019-03-31T13:00:25.229Z,17.87
2019-03-31T13:02:58.131Z,18.09
2019-03-31T13:05:31.321Z,18.44
2019-03-31T13:08:04.249Z,18.94
2019-03-31T13:10:37.372Z,19.43
2019-03-31T13:13:10.157Z,19.68
2019-03-31T13:15:43.077Z,19.65
2019-03-31T13:18:16.405Z,19.62
2019-03-31T13:20:49.550Z,18.93
2019-03-31T13:23:22.332Z,18.45
2019-03-31T13:25:55.144Z,18.27
2019-03-31T13:28:27.925Z,19.18
2019-03-31T13:31:00.819Z,19.63
2019-03-31T13:33:33.740Z,19.19
2019-03-31T13:36:06.605Z,18.52
2019-03-31T13:38:39.493Z,18.59
2019-03-31T13:41:12.332Z,17.91
2019-03-31T13:43:45.131Z,17.58
2019-03-31T13:46:19.087Z,18.21
2019-03-31T13:48:52.044Z,18.59
2019-03-31T13:51:25.013Z,18.95
2019-03-31T13:53:57.933Z,19.26
2019-03-31T13:56:31.150Z,19.81
2019-03-31T13:59:08.908Z,20.43
2019-03-31T14:01:39.968Z,20.56
2019-03-31T14:04:12.777Z,20.76
2019-03-31T14:06:45.855Z,20.06
2019-03-31T14:09:18.836Z,19.78
2019-03-31T14:11:52.034Z,19.90
2019-03-31T14:14:25.085Z,20.64
2019-03-31T14:16:59.962Z,20.81
2019-03-31T14:19:32.872Z,20.86
2019-03-31T14:22:05.896Z,21.58
2019-03-31T14:24:38.771Z,22.14
2019-03-31T14:27:11.513Z,22.31
2019-03-31T14:29:44.387Z,22.03
2019-03-31T14:32:17.223Z,22.46
2019-03-31T14:34:50.004Z,23.85
2019-03-31T14:37:22.806Z,24.11
2019-03-31T14:39:55.708Z,24.27
2019-03-31T14:42:28.784Z,24.44
2019-03-31T14:45:01.897Z,24.91
2019-03-31T14:47:34.792Z,25.10
2019-03-31T14:50:08.438Z,25.09
2019-03-31T14:52:42.525Z,25.01
2019-03-31T14:55:15.445Z,25.06
2019-03-31T14:57:48.333Z,25.33
2019-03-31T15:00:21.412Z,25.49
2019-03-31T15:02:54.754Z,25.63
2019-03-31T15:05:27.632Z,25.91
2019-03-31T15:08:01.762Z,26.63
2019-03-31T15:10:36.227Z,26.83
2019-03-31T15:13:09.188Z,26.87
2019-03-31T15:15:42.035Z,27.57
2019-03-31T15:18:14.887Z,28.19
2019-03-31T15:20:48.937Z,28.46
2019-03-31T15:23:28.903Z,28.03
2019-03-31T15:25:59.135Z,28.11
2019-03-31T15:28:32.033Z,27.89
2019-03-31T15:31:04.816Z,28.06
2019-03-31T15:33:37.581Z,28.07
2019-03-31T15:36:11.197Z,28.67
2019-03-31T15:38:43.980Z,29.31
2019-03-31T15:41:21.317Z,29.67
2019-03-31T15:43:51.309Z,29.95
2019-03-31T15:46:24.785Z,29.99
2019-03-31T15:48:57.852Z,30.22
2019-03-31T15:51:31.201Z,30.42
2019-03-31T15:54:04.200Z,30.46
2019-03-31T15:56:36.968Z,30.29
2019-03-31T15:59:09.856Z,30.16
2019-03-31T16:01:44.542Z,29.70
2019-03-31T16:04:17.509Z,29.80
2019-03-31T16:06:50.280Z,29.87
2019-03-31T16:09:24.368Z,30.05
2019-03-31T16:11:56.586Z,30.14
2019-03-31T16:14:28.598Z,30.53
2019-03-31T16:17:03.516Z,31.07
2019-03-31T16:19:35.603Z,31.50
2019-03-31T16:22:07.748Z,31.59
2019-03-31T16:24:43.527Z,32.11
2019-03-31T16:27:16.628Z,32.76
2019-03-31T16:29:48.875Z,33.45
2019-03-31T16:32:21.328Z,34.09
2019-03-31T16:34:53.513Z,34.86
2019-03-31T16:37:25.505Z,35.41
2019-03-31T16:39:57.546Z,35.64
2019-03-31T16:42:30.796Z,36.19
2019-03-31T16:45:02.770Z,36.72
2019-03-31T16:47:36.624Z,37.11
2019-03-31T16:50:10.784Z,37.18
2019-03-31T16:52:42.885Z,37.78
2019-03-31T16:55:15.086Z,37.68
2019-03-31T16:57:48.601Z,37.90
2019-03-31T17:00:21.220Z,38.63
2019-03-31T17:02:53.532Z,38.74
2019-03-31T17:05:25.775Z,39.18
2019-03-31T17:07:57.730Z,39.47
2019-03-31T17:10:29.954Z,40.06
2019-03-31T17:13:01.947Z,40.81
2019-03-31T17:15:34.401Z,41.46
2019-03-31T17:18:06.574Z,41.57
2019-03-31T17:20:38.680Z,42.61
2019-03-31T17:23:10.956Z,42.83
2019-03-31T17:25:44.834Z,43.82
2019-03-31T17:28:16.864Z,44.28
2019-03-31T17:30:49.056Z,44.60
2019-03-31T17:33:21.414Z,45.28
2019-03-31T17:35:53.458Z,45.97
2019-03-31T17:38:25.624Z,46.56
2019-03-31T17:40:57.596Z,46.58
2019-03-31T17:43:30.280Z,47.36
2019-03-31T17:46:02.352Z,47.88
2019-03-31T17:48:34.313Z,48.18
2019-03-31T17:51:06.356Z,48.66
2019-03-31T17:53:38.715Z,48.50
2019-03-31T17:56:10.821Z,48.98
2019-03-31T17:58:42.829Z,49.48
2019-03-31T18:01:15.094Z,49.50
2019-03-31T18:03:47.138Z,49.74
2019-03-31T18:06:19.233Z,50.11
2019-03-31T18:08:51.216Z,50.21
2019-03-31T18:11:23.316Z,50.61
2019-03-31T18:13:57.793Z,50.93
2019-03-31T18:16:30.332Z,51.38
2019-03-31T18:19:02.429Z,51.22
2019-03-31T18:21:34.690Z,51.68
2019-03-31T18:24:06.892Z,51.75
2019-03-31T18:26:39.054Z,51.84
2019-03-31T18:29:11.366Z,51.96
2019-03-31T18:31:43.371Z,52.18
2019-03-31T18:34:15.605Z,52.48
2019-03-31T18:36:47.590Z,52.24
2019-03-31T18:39:19.703Z,52.45
2019-03-31T18:41:51.860Z,52.74
2019-03-31T18:44:23.955Z,52.77
2019-03-31T18:46:55.928Z,52.84
2019-03-31T18:49:28.017Z,52.82
2019-03-31T18:52:00.516Z,52.52
2019-03-31T18:54:46.184Z,52.45
2019-03-31T18:57:29.822Z,52.39
2019-03-31T19:00:19.767Z,52.29
2019-03-31T19:03:12.832Z,52.28
2019-03-31T19:06:11.169Z,52.58
2019-03-31T19:09:02.023Z,52.57
2019-03-31T19:11:44.310Z,52.91
2019-03-31T19:14:33.952Z,53.06
2019-03-31T19:17:23.516Z,53.40
2019-03-31T19:20:20.540Z,53.24
2019-03-31T19:23:04.385Z,53.89
2019-03-31T19:26:04.400Z,53.97
2019-03-31T19:28:58.353Z,53.87
2019-03-31T19:31:50.121Z,54.20
2019-03-31T19:34:43.766Z,54.57
2019-03-31T19:37:37.399Z,54.29
2019-03-31T19:40:32.712Z,54.62
2019-03-31T19:43:22.103Z,54.84
2019-03-31T19:46:06.364Z,54.70
2019-03-31T19:48:43.432Z,54.86
2019-03-31T19:51:49.462Z,55.01
2019-03-31T19:54:39.205Z,55.17
2019-03-31T19:57:45.507Z,55.31
2019-03-31T20:00:39.111Z,55.60
2019-03-31T20:03:32.553Z,55.86
2019-03-31T20:06:13.237Z,55.77
2019-03-31T20:08:59.604Z,55.56
2019-03-31T20:11:43.190Z,56.01
2019-03-31T20:14:30.554Z,56.49
2019-03-31T20:17:13.062Z,56.60
2019-03-31T20:20:03.346Z,56.62
2019-03-31T20:22:50.586Z,56.79
2019-03-31T20:26:00.142Z,57.40
2019-03-31T20:28:49.832Z,57.61
2019-03-31T20:31:39.489Z,57.44
2019-03-31T20:34:18.154Z,57.60
2019-03-31T20:37:16.959Z,57.59
2019-03-31T20:40:06.675Z,57.66
2019-03-31T20:42:49.494Z,57.78
2019-03-31T20:45:21.526Z,57.89
2019-03-31T20:47:53.670Z,58.04
2019-03-31T20:50:25.759Z,58.37
2019-03-31T20:52:57.829Z,58.39
2019-03-31T20:55:30.427Z,58.43
2019-03-31T20:58:02.442Z,58.56
2019-03-31T21:00:34.426Z,58.79
2019-03-31T21:03:06.458Z,58.95
2019-03-31T21:05:38.542Z,59.05
2019-03-31T21:08:10.656Z,59.17
2019-03-31T21:10:42.622Z,58.97
2019-03-31T21:13:14.632Z,59.27
2019-03-31T21:15:47.574Z,59.12
2019-03-31T21:18:19.671Z,59.33
2019-03-31T21:20:51.655Z,59.17
2019-03-31T21:23:24.312Z,59.49
2019-03-31T21:25:56.417Z,59.42
2019-03-31T21:28:28.527Z,59.48
2019-03-31T21:31:00.948Z,59.52
2019-03-31T21:33:34.407Z,59.76
2019-03-31T21:36:06.469Z,59.75
2019-03-31T21:38:38.531Z,59.58
2019-03-31T21:41:14.013Z,59.66
2019-03-31T21:43:44.944Z,60.20
2019-03-31T21:46:16.901Z,60.33
2019-03-31T21:48:48.928Z,61.01
2019-03-31T21:51:21.103Z,61.29
2019-03-31T21:53:53.331Z,61.42
2019-03-31T21:56:25.399Z,61.76
2019-03-31T21:58:59.231Z,61.89
2019-03-31T22:01:33.119Z,61.73
2019-03-31T22:04:06.485Z,61.97
2019-03-31T22:06:38.655Z,61.86
2019-03-31T22:09:12.033Z,62.26
2019-03-31T22:11:44.113Z,62.44
2019-03-31T22:14:18.449Z,62.43
2019-03-31T22:16:50.406Z,62.43
2019-03-31T22:19:24.249Z,62.07
2019-03-31T22:21:56.220Z,61.74
2019-03-31T22:24:28.382Z,61.52
2019-03-31T22:27:00.735Z,61.00
2019-03-31T22:29:32.857Z,60.42
2019-03-31T22:32:04.955Z,59.95
2019-03-31T22:34:36.949Z,59.60
2019-03-31T22:37:09.095Z,59.14
2019-03-31T22:42:01.773Z,58.65
2019-03-31T22:44:33.862Z,58.50
2019-03-31T22:47:05.870Z,58.38
2019-03-31T22:49:37.882Z,58.17
2019-03-31T22:52:10.268Z,58.10
2019-03-31T22:54:42.337Z,58.17
2019-03-31T22:57:14.377Z,58.08
2019-03-31T22:59:46.503Z,57.92
2019-03-31T23:02:19.039Z,57.84
2019-03-31T23:04:51.015Z,57.72
2019-03-31T23:07:23.029Z,57.70
2019-03-31T23:09:55.134Z,57.52
2019-03-31T23:12:27.161Z,57.66
2019-03-31T23:14:59.133Z,57.53
2019-03-31T23:17:31.169Z,57.45
2019-03-31T23:20:05.192Z,57.71
2019-03-31T23:22:37.150Z,57.49
2019-03-31T23:25:09.207Z,57.26
2019-03-31T23:27:41.457Z,57.10
2019-03-31T23:30:13.830Z,57.08
2019-03-31T23:32:45.918Z,57.29
2019-03-31T23:35:17.889Z,57.33
2019-03-31T23:37:49.980Z,57.35
2019-03-31T23:40:22.200Z,57.31
2019-03-31T23:42:54.699Z,57.16
2019-03-31T23:45:26.697Z,57.34
2019-03-31T23:47:58.705Z,57.13
2019-03-31T23:50:31.306Z,57.04
2019-03-31T23:53:03.312Z,57.09
2019-03-31T23:55:36.988Z,57.41
2019-03-31T23:58:09.007Z,57.80
